sensor_id;sensor_type;location;lat;lon;timestamp;temperature;humidity
7720;DHT22;3902;49.474;8.616;2023-04-16T00:00:46;10.90;99.90
7720;DHT22;3902;49.474;8.616;2023-04-16T00:03:13;10.80;99.90
7720;DHT22;3902;49.474;8.616;2023-04-16T00:05:38;10.80;99.90
7720;DHT22;3902;49.474;8.616;2023-04-16T00:08:04;10.80;99.90
7720;DHT22;3902;49.474;8.616;2023-04-16T00:10:30;10.70;99.90
7720;DHT22;3902;49.474;8.616;2023-04-16T00:12:55;10.80;99.90
7720;DHT22;3902;49.474;8.616;2023-04-16T00:15:21;10.80;99.90
7720;DHT22;3902;49.474;8.616;2023-04-16T00:17:46;10.80;99.90
7720;DHT22;3902;49.474;8.616;2023-04-16T00:20:12;10.80;99.90
7720;DHT22;3902;49.474;8.616;2023-04-16T00:22:38;10.80;99.90
7720;DHT22;3902;49.474;8.616;2023-04-16T00:25:04;10.80;99.90
7720;DHT22;3902;49.474;8.616;2023-04-16T00:27:29;10.80;99.90
7720;DHT22;3902;49.474;8.616;2023-04-16T00:29:55;10.80;99.90
7720;DHT22;3902;49.474;8.616;2023-04-16T00:32:20;10.80;99.90
7720;DHT22;3902;49.474;8.616;2023-04-16T00:34:46;10.80;99.90
7720;DHT22;3902;49.474;8.616;2023-04-16T00:37:11;10.80;99.90
7720;DHT22;3902;49.474;8.616;2023-04-16T00:39:37;10.80;99.90
7720;DHT22;3902;49.474;8.616;2023-04-16T00:42:02;10.80;99.90
7720;DHT22;3902;49.474;8.616;2023-04-16T00:44:28;10.80;99.90
7720;DHT22;3902;49.474;8.616;2023-04-16T00:46:56;10.80;99.90
7720;DHT22;3902;49.474;8.616;2023-04-16T00:49:22;10.80;99.90
7720;DHT22;3902;49.474;8.616;2023-04-16T00:51:49;10.80;99.90
7720;DHT22;3902;49.474;8.616;2023-04-16T00:54:14;10.80;99.90
7720;DHT22;3902;49.474;8.616;2023-04-16T00:56:40;10.80;99.90
7720;DHT22;3902;49.474;8.616;2023-04-16T00:59:07;10.80;99.90
7720;DHT22;3902;49.474;8.616;2023-04-16T01:01:32;10.80;99.90
7720;DHT22;3902;49.474;8.616;2023-04-16T01:03:58;10.80;99.90
7720;DHT22;3902;49.474;8.616;2023-04-16T01:06:23;10.80;99.90
7720;DHT22;3902;49.474;8.616;2023-04-16T01:08:50;10.70;99.90
7720;DHT22;3902;49.474;8.616;2023-04-16T01:11:15;10.70;99.90
7720;DHT22;3902;49.474;8.616;2023-04-16T01:13:41;10.70;99.90
7720;DHT22;3902;49.474;8.616;2023-04-16T01:16:07;10.80;99.90
7720;DHT22;3902;49.474;8.616;2023-04-16T01:18:33;10.80;99.90
7720;DHT22;3902;49.474;8.616;2023-04-16T01:20:59;10.80;99.90
7720;DHT22;3902;49.474;8.616;2023-04-16T01:23:25;10.80;99.90
7720;DHT22;3902;49.474;8.616;2023-04-16T01:25:51;10.80;99.90
7720;DHT22;3902;49.474;8.616;2023-04-16T01:28:16;10.80;99.90
7720;DHT22;3902;49.474;8.616;2023-04-16T01:30:42;10.80;99.90
7720;DHT22;3902;49.474;8.616;2023-04-16T01:33:11;10.70;99.90
7720;DHT22;3902;49.474;8.616;2023-04-16T01:35:38;10.80;99.90
7720;DHT22;3902;49.474;8.616;2023-04-16T01:38:04;10.70;99.90
7720;DHT22;3902;49.474;8.616;2023-04-16T01:40:31;10.80;99.90
7720;DHT22;3902;49.474;8.616;2023-04-16T01:42:56;10.80;99.90
7720;DHT22;3902;49.474;8.616;2023-04-16T01:45:22;10.70;99.90
7720;DHT22;3902;49.474;8.616;2023-04-16T01:47:51;10.70;99.90
7720;DHT22;3902;49.474;8.616;2023-04-16T01:50:18;10.60;99.90
7720;DHT22;3902;49.474;8.616;2023-04-16T01:52:44;10.70;99.90
7720;DHT22;3902;49.474;8.616;2023-04-16T01:55:10;10.70;99.90
7720;DHT22;3902;49.474;8.616;2023-04-16T01:57:35;10.70;99.90
7720;DHT22;3902;49.474;8.616;2023-04-16T02:00:02;10.70;99.90
7720;DHT22;3902;49.474;8.616;2023-04-16T02:02:28;10.70;99.90
7720;DHT22;3902;49.474;8.616;2023-04-16T02:04:54;10.60;99.90
7720;DHT22;3902;49.474;8.616;2023-04-16T02:07:21;10.70;99.90
7720;DHT22;3902;49.474;8.616;2023-04-16T02:09:47;10.70;99.90
7720;DHT22;3902;49.474;8.616;2023-04-16T02:12:14;10.70;99.90
7720;DHT22;3902;49.474;8.616;2023-04-16T02:14:39;10.60;99.90
7720;DHT22;3902;49.474;8.616;2023-04-16T02:17:05;10.60;99.90
7720;DHT22;3902;49.474;8.616;2023-04-16T02:19:31;10.70;99.90
7720;DHT22;3902;49.474;8.616;2023-04-16T02:21:56;10.70;99.90
7720;DHT22;3902;49.474;8.616;2023-04-16T02:24:22;10.50;99.90
7720;DHT22;3902;49.474;8.616;2023-04-16T02:26:47;10.60;99.90
7720;DHT22;3902;49.474;8.616;2023-04-16T02:29:13;10.60;99.90
7720;DHT22;3902;49.474;8.616;2023-04-16T02:31:39;10.60;99.90
7720;DHT22;3902;49.474;8.616;2023-04-16T02:34:04;10.60;99.90
7720;DHT22;3902;49.474;8.616;2023-04-16T02:36:30;10.60;99.90
7720;DHT22;3902;49.474;8.616;2023-04-16T02:38:59;10.60;99.90
7720;DHT22;3902;49.474;8.616;2023-04-16T02:41:25;10.60;99.90
7720;DHT22;3902;49.474;8.616;2023-04-16T02:43:50;10.60;99.90
7720;DHT22;3902;49.474;8.616;2023-04-16T02:46:16;10.60;99.90
7720;DHT22;3902;49.474;8.616;2023-04-16T02:48:41;10.60;99.90
7720;DHT22;3902;49.474;8.616;2023-04-16T02:51:07;10.60;99.90
7720;DHT22;3902;49.474;8.616;2023-04-16T02:53:33;10.60;99.90
7720;DHT22;3902;49.474;8.616;2023-04-16T02:55:58;10.60;99.90
7720;DHT22;3902;49.474;8.616;2023-04-16T02:58:25;10.60;99.90
7720;DHT22;3902;49.474;8.616;2023-04-16T03:00:51;10.60;99.90
7720;DHT22;3902;49.474;8.616;2023-04-16T03:03:17;10.60;99.90
7720;DHT22;3902;49.474;8.616;2023-04-16T03:05:43;10.60;99.90
7720;DHT22;3902;49.474;8.616;2023-04-16T03:08:09;10.60;99.90
7720;DHT22;3902;49.474;8.616;2023-04-16T03:10:35;10.50;99.90
7720;DHT22;3902;49.474;8.616;2023-04-16T03:13:01;10.60;99.90
7720;DHT22;3902;49.474;8.616;2023-04-16T03:15:27;10.60;99.90
7720;DHT22;3902;49.474;8.616;2023-04-16T03:17:53;10.60;99.90
7720;DHT22;3902;49.474;8.616;2023-04-16T03:20:18;10.60;99.90
7720;DHT22;3902;49.474;8.616;2023-04-16T03:22:47;10.60;99.90
7720;DHT22;3902;49.474;8.616;2023-04-16T03:25:13;10.60;99.90
7720;DHT22;3902;49.474;8.616;2023-04-16T03:27:38;10.50;99.90
7720;DHT22;3902;49.474;8.616;2023-04-16T03:30:09;10.50;99.90
7720;DHT22;3902;49.474;8.616;2023-04-16T03:32:35;10.50;99.90
7720;DHT22;3902;49.474;8.616;2023-04-16T03:35:04;10.60;99.90
7720;DHT22;3902;49.474;8.616;2023-04-16T03:37:30;10.60;99.90
7720;DHT22;3902;49.474;8.616;2023-04-16T03:39:56;10.60;99.90
7720;DHT22;3902;49.474;8.616;2023-04-16T03:42:21;10.60;99.90
7720;DHT22;3902;49.474;8.616;2023-04-16T03:44:47;10.60;99.90
7720;DHT22;3902;49.474;8.616;2023-04-16T03:47:12;10.60;99.90
7720;DHT22;3902;49.474;8.616;2023-04-16T03:49:38;10.60;99.90
7720;DHT22;3902;49.474;8.616;2023-04-16T03:52:03;10.50;99.90
7720;DHT22;3902;49.474;8.616;2023-04-16T03:54:29;10.50;99.90
7720;DHT22;3902;49.474;8.616;2023-04-16T03:56:54;10.50;99.90
7720;DHT22;3902;49.474;8.616;2023-04-16T03:59:21;10.60;99.90
7720;DHT22;3902;49.474;8.616;2023-04-16T04:01:46;10.50;99.90
7720;DHT22;3902;49.474;8.616;2023-04-16T04:04:12;10.50;99.90
7720;DHT22;3902;49.474;8.616;2023-04-16T04:06:37;10.50;99.90
7720;DHT22;3902;49.474;8.616;2023-04-16T04:09:03;10.50;99.90
7720;DHT22;3902;49.474;8.616;2023-04-16T04:11:28;10.60;99.90
7720;DHT22;3902;49.474;8.616;2023-04-16T04:13:54;10.60;99.90
7720;DHT22;3902;49.474;8.616;2023-04-16T04:16:19;10.60;99.90
7720;DHT22;3902;49.474;8.616;2023-04-16T04:18:45;10.60;99.90
7720;DHT22;3902;49.474;8.616;2023-04-16T04:21:11;10.60;99.90
7720;DHT22;3902;49.474;8.616;2023-04-16T04:23:37;10.50;99.90
7720;DHT22;3902;49.474;8.616;2023-04-16T04:26:03;10.60;99.90
7720;DHT22;3902;49.474;8.616;2023-04-16T04:28:30;10.60;99.90
7720;DHT22;3902;49.474;8.616;2023-04-16T04:31:00;10.50;99.90
7720;DHT22;3902;49.474;8.616;2023-04-16T04:33:26;10.50;99.90
7720;DHT22;3902;49.474;8.616;2023-04-16T04:35:52;10.60;99.90
7720;DHT22;3902;49.474;8.616;2023-04-16T04:38:18;10.60;99.90
7720;DHT22;3902;49.474;8.616;2023-04-16T04:40:44;10.60;99.90
7720;DHT22;3902;49.474;8.616;2023-04-16T04:43:10;10.60;99.90
7720;DHT22;3902;49.474;8.616;2023-04-16T04:45:36;10.60;99.90
7720;DHT22;3902;49.474;8.616;2023-04-16T04:48:01;10.60;99.90
7720;DHT22;3902;49.474;8.616;2023-04-16T04:50:27;10.60;99.90
7720;DHT22;3902;49.474;8.616;2023-04-16T04:52:52;10.60;99.90
7720;DHT22;3902;49.474;8.616;2023-04-16T04:55:18;10.60;99.90
7720;DHT22;3902;49.474;8.616;2023-04-16T04:57:43;10.50;99.90
7720;DHT22;3902;49.474;8.616;2023-04-16T05:00:09;10.50;99.90
7720;DHT22;3902;49.474;8.616;2023-04-16T05:02:35;10.50;99.90
7720;DHT22;3902;49.474;8.616;2023-04-16T05:05:00;10.30;99.90
7720;DHT22;3902;49.474;8.616;2023-04-16T05:07:26;10.30;99.90
7720;DHT22;3902;49.474;8.616;2023-04-16T05:09:51;10.40;99.90
7720;DHT22;3902;49.474;8.616;2023-04-16T05:12:17;10.40;99.90
7720;DHT22;3902;49.474;8.616;2023-04-16T05:14:42;10.40;99.90
7720;DHT22;3902;49.474;8.616;2023-04-16T05:17:08;10.40;99.90
7720;DHT22;3902;49.474;8.616;2023-04-16T05:19:35;10.30;99.90
7720;DHT22;3902;49.474;8.616;2023-04-16T05:22:01;10.20;99.90
7720;DHT22;3902;49.474;8.616;2023-04-16T05:24:27;10.20;99.90
7720;DHT22;3902;49.474;8.616;2023-04-16T05:26:52;10.30;99.90
7720;DHT22;3902;49.474;8.616;2023-04-16T05:29:18;10.10;99.90
7720;DHT22;3902;49.474;8.616;2023-04-16T05:31:43;10.10;99.90
7720;DHT22;3902;49.474;8.616;2023-04-16T05:34:09;10.10;99.90
7720;DHT22;3902;49.474;8.616;2023-04-16T05:36:34;10.20;99.90
7720;DHT22;3902;49.474;8.616;2023-04-16T05:39:00;10.20;99.90
7720;DHT22;3902;49.474;8.616;2023-04-16T05:41:25;10.20;99.90
7720;DHT22;3902;49.474;8.616;2023-04-16T05:43:51;10.30;99.90
7720;DHT22;3902;49.474;8.616;2023-04-16T05:46:16;10.30;99.90
7720;DHT22;3902;49.474;8.616;2023-04-16T05:48:42;10.40;99.90
7720;DHT22;3902;49.474;8.616;2023-04-16T05:51:07;10.40;99.90
7720;DHT22;3902;49.474;8.616;2023-04-16T05:53:32;10.40;99.90
7720;DHT22;3902;49.474;8.616;2023-04-16T05:55:58;10.40;99.90
7720;DHT22;3902;49.474;8.616;2023-04-16T05:58:23;10.50;99.90
7720;DHT22;3902;49.474;8.616;2023-04-16T06:00:49;10.50;99.90
7720;DHT22;3902;49.474;8.616;2023-04-16T06:03:15;10.50;99.90
7720;DHT22;3902;49.474;8.616;2023-04-16T06:05:41;10.50;99.90
7720;DHT22;3902;49.474;8.616;2023-04-16T06:08:06;10.50;99.90
7720;DHT22;3902;49.474;8.616;2023-04-16T06:10:32;10.50;99.90
7720;DHT22;3902;49.474;8.616;2023-04-16T06:12:57;10.50;99.90
7720;DHT22;3902;49.474;8.616;2023-04-16T06:15:23;10.50;99.90
7720;DHT22;3902;49.474;8.616;2023-04-16T06:17:48;10.60;99.90
7720;DHT22;3902;49.474;8.616;2023-04-16T06:20:14;10.60;99.90
7720;DHT22;3902;49.474;8.616;2023-04-16T06:22:39;10.60;99.90
7720;DHT22;3902;49.474;8.616;2023-04-16T06:25:05;10.60;99.90
7720;DHT22;3902;49.474;8.616;2023-04-16T06:27:31;10.60;99.90
7720;DHT22;3902;49.474;8.616;2023-04-16T06:29:56;10.60;99.90
7720;DHT22;3902;49.474;8.616;2023-04-16T06:32:22;10.60;99.90
7720;DHT22;3902;49.474;8.616;2023-04-16T06:34:48;10.60;99.90
7720;DHT22;3902;49.474;8.616;2023-04-16T06:37:14;10.60;99.90
7720;DHT22;3902;49.474;8.616;2023-04-16T06:39:40;10.60;99.90
7720;DHT22;3902;49.474;8.616;2023-04-16T06:42:06;10.50;99.90
7720;DHT22;3902;49.474;8.616;2023-04-16T06:44:31;10.50;99.90
7720;DHT22;3902;49.474;8.616;2023-04-16T06:46:57;10.60;99.90
7720;DHT22;3902;49.474;8.616;2023-04-16T06:49:22;10.50;99.90
7720;DHT22;3902;49.474;8.616;2023-04-16T06:51:48;10.60;99.90
7720;DHT22;3902;49.474;8.616;2023-04-16T06:54:13;10.60;99.90
7720;DHT22;3902;49.474;8.616;2023-04-16T06:56:39;10.50;99.90
7720;DHT22;3902;49.474;8.616;2023-04-16T06:59:06;10.50;99.90
7720;DHT22;3902;49.474;8.616;2023-04-16T07:01:31;10.50;99.90
7720;DHT22;3902;49.474;8.616;2023-04-16T07:03:57;10.50;99.90
7720;DHT22;3902;49.474;8.616;2023-04-16T07:06:23;10.50;99.90
7720;DHT22;3902;49.474;8.616;2023-04-16T07:08:48;10.50;99.90
7720;DHT22;3902;49.474;8.616;2023-04-16T07:11:14;10.50;99.90
7720;DHT22;3902;49.474;8.616;2023-04-16T07:13:39;10.40;99.90
7720;DHT22;3902;49.474;8.616;2023-04-16T07:16:05;10.40;99.90
7720;DHT22;3902;49.474;8.616;2023-04-16T07:18:31;10.40;99.90
7720;DHT22;3902;49.474;8.616;2023-04-16T07:20:56;10.40;99.90
7720;DHT22;3902;49.474;8.616;2023-04-16T07:23:22;10.40;99.90
7720;DHT22;3902;49.474;8.616;2023-04-16T07:25:47;10.40;99.90
7720;DHT22;3902;49.474;8.616;2023-04-16T07:28:13;10.30;99.90
7720;DHT22;3902;49.474;8.616;2023-04-16T07:30:40;10.30;99.90
7720;DHT22;3902;49.474;8.616;2023-04-16T07:33:06;10.20;99.90
7720;DHT22;3902;49.474;8.616;2023-04-16T07:35:32;10.30;99.90
7720;DHT22;3902;49.474;8.616;2023-04-16T07:37:57;10.30;99.90
7720;DHT22;3902;49.474;8.616;2023-04-16T07:40:23;10.30;99.90
7720;DHT22;3902;49.474;8.616;2023-04-16T07:42:49;10.40;99.90
7720;DHT22;3902;49.474;8.616;2023-04-16T07:45:15;10.40;99.90
7720;DHT22;3902;49.474;8.616;2023-04-16T07:47:41;10.50;99.90
7720;DHT22;3902;49.474;8.616;2023-04-16T07:50:07;10.50;99.90
7720;DHT22;3902;49.474;8.616;2023-04-16T07:52:32;10.60;99.90
7720;DHT22;3902;49.474;8.616;2023-04-16T07:54:58;10.60;99.90
7720;DHT22;3902;49.474;8.616;2023-04-16T07:57:23;10.60;99.90
7720;DHT22;3902;49.474;8.616;2023-04-16T07:59:49;10.60;99.90
7720;DHT22;3902;49.474;8.616;2023-04-16T08:02:15;10.60;99.90
7720;DHT22;3902;49.474;8.616;2023-04-16T08:04:42;10.60;99.90
7720;DHT22;3902;49.474;8.616;2023-04-16T08:07:07;10.70;99.90
7720;DHT22;3902;49.474;8.616;2023-04-16T08:09:33;10.70;99.90
7720;DHT22;3902;49.474;8.616;2023-04-16T08:12:02;10.70;99.90
7720;DHT22;3902;49.474;8.616;2023-04-16T08:14:28;10.70;99.90
7720;DHT22;3902;49.474;8.616;2023-04-16T08:16:53;10.80;99.90
7720;DHT22;3902;49.474;8.616;2023-04-16T08:19:19;10.80;99.90
7720;DHT22;3902;49.474;8.616;2023-04-16T08:21:45;10.80;99.90
7720;DHT22;3902;49.474;8.616;2023-04-16T08:24:10;10.80;99.90
7720;DHT22;3902;49.474;8.616;2023-04-16T08:26:36;10.80;99.90
7720;DHT22;3902;49.474;8.616;2023-04-16T08:29:02;10.80;99.90
7720;DHT22;3902;49.474;8.616;2023-04-16T08:31:27;10.80;99.90
7720;DHT22;3902;49.474;8.616;2023-04-16T08:33:53;10.80;99.90
7720;DHT22;3902;49.474;8.616;2023-04-16T08:36:18;10.80;99.90
7720;DHT22;3902;49.474;8.616;2023-04-16T08:38:44;10.80;99.90
7720;DHT22;3902;49.474;8.616;2023-04-16T08:41:11;10.80;99.90
7720;DHT22;3902;49.474;8.616;2023-04-16T08:43:43;10.90;99.90
7720;DHT22;3902;49.474;8.616;2023-04-16T08:46:10;10.90;99.90
7720;DHT22;3902;49.474;8.616;2023-04-16T08:48:36;10.90;99.90
7720;DHT22;3902;49.474;8.616;2023-04-16T08:51:08;10.90;99.90
7720;DHT22;3902;49.474;8.616;2023-04-16T08:53:54;10.80;99.90
7720;DHT22;3902;49.474;8.616;2023-04-16T08:56:22;10.80;99.90
7720;DHT22;3902;49.474;8.616;2023-04-16T08:58:50;10.70;99.90
7720;DHT22;3902;49.474;8.616;2023-04-16T09:01:17;10.70;99.90
7720;DHT22;3902;49.474;8.616;2023-04-16T09:03:47;10.70;99.90
7720;DHT22;3902;49.474;8.616;2023-04-16T09:06:14;10.80;99.90
7720;DHT22;3902;49.474;8.616;2023-04-16T09:08:42;10.80;99.90
7720;DHT22;3902;49.474;8.616;2023-04-16T09:11:08;10.80;99.90
7720;DHT22;3902;49.474;8.616;2023-04-16T09:13:34;10.80;99.90
7720;DHT22;3902;49.474;8.616;2023-04-16T09:16:02;10.90;99.90
7720;DHT22;3902;49.474;8.616;2023-04-16T09:18:27;10.90;99.90
7720;DHT22;3902;49.474;8.616;2023-04-16T09:20:54;10.80;99.90
7720;DHT22;3902;49.474;8.616;2023-04-16T09:23:21;10.80;99.90
7720;DHT22;3902;49.474;8.616;2023-04-16T09:25:47;10.80;99.90
7720;DHT22;3902;49.474;8.616;2023-04-16T09:28:12;10.80;99.90
7720;DHT22;3902;49.474;8.616;2023-04-16T09:31:09;10.90;99.90
7720;DHT22;3902;49.474;8.616;2023-04-16T09:33:34;10.80;99.90
7720;DHT22;3902;49.474;8.616;2023-04-16T09:36:01;10.80;99.90
7720;DHT22;3902;49.474;8.616;2023-04-16T09:38:47;10.80;99.90
7720;DHT22;3902;49.474;8.616;2023-04-16T09:41:13;10.80;99.90
7720;DHT22;3902;49.474;8.616;2023-04-16T09:43:43;10.90;99.90
7720;DHT22;3902;49.474;8.616;2023-04-16T09:46:13;10.80;99.90
7720;DHT22;3902;49.474;8.616;2023-04-16T09:48:38;10.80;99.90
7720;DHT22;3902;49.474;8.616;2023-04-16T09:51:05;10.80;99.90
7720;DHT22;3902;49.474;8.616;2023-04-16T09:53:31;10.90;99.90
7720;DHT22;3902;49.474;8.616;2023-04-16T09:56:01;10.80;99.90
7720;DHT22;3902;49.474;8.616;2023-04-16T09:58:27;10.70;99.90
7720;DHT22;3902;49.474;8.616;2023-04-16T10:01:10;10.80;99.90
7720;DHT22;3902;49.474;8.616;2023-04-16T10:03:37;10.70;99.90
7720;DHT22;3902;49.474;8.616;2023-04-16T10:06:07;10.80;99.90
7720;DHT22;3902;49.474;8.616;2023-04-16T10:08:33;10.80;99.90
7720;DHT22;3902;49.474;8.616;2023-04-16T10:10:58;10.80;99.90
7720;DHT22;3902;49.474;8.616;2023-04-16T10:13:24;10.80;99.90
7720;DHT22;3902;49.474;8.616;2023-04-16T10:15:54;10.80;99.90
7720;DHT22;3902;49.474;8.616;2023-04-16T10:18:21;10.80;99.90
7720;DHT22;3902;49.474;8.616;2023-04-16T10:20:47;10.80;99.90
7720;DHT22;3902;49.474;8.616;2023-04-16T10:23:14;10.90;99.90
7720;DHT22;3902;49.474;8.616;2023-04-16T10:25:41;10.80;99.90
7720;DHT22;3902;49.474;8.616;2023-04-16T10:28:08;10.90;99.90
7720;DHT22;3902;49.474;8.616;2023-04-16T10:30:35;10.90;99.90
7720;DHT22;3902;49.474;8.616;2023-04-16T10:33:03;10.90;99.90
7720;DHT22;3902;49.474;8.616;2023-04-16T10:35:29;10.80;99.90
7720;DHT22;3902;49.474;8.616;2023-04-16T10:37:56;10.90;99.90
7720;DHT22;3902;49.474;8.616;2023-04-16T10:40:23;10.80;99.90
7720;DHT22;3902;49.474;8.616;2023-04-16T10:42:58;10.70;99.90
7720;DHT22;3902;49.474;8.616;2023-04-16T10:45:47;10.70;99.90
7720;DHT22;3902;49.474;8.616;2023-04-16T10:48:12;10.80;99.90
7720;DHT22;3902;49.474;8.616;2023-04-16T10:50:39;10.90;99.90
7720;DHT22;3902;49.474;8.616;2023-04-16T10:53:23;10.90;99.90
7720;DHT22;3902;49.474;8.616;2023-04-16T10:58:32;10.90;99.90
7720;DHT22;3902;49.474;8.616;2023-04-16T11:01:00;10.90;99.90
7720;DHT22;3902;49.474;8.616;2023-04-16T11:03:32;11.00;99.90
7720;DHT22;3902;49.474;8.616;2023-04-16T11:06:12;11.00;99.90
7720;DHT22;3902;49.474;8.616;2023-04-16T11:08:39;11.10;99.90
7720;DHT22;3902;49.474;8.616;2023-04-16T11:11:05;11.00;99.90
7720;DHT22;3902;49.474;8.616;2023-04-16T11:13:32;11.10;99.90
7720;DHT22;3902;49.474;8.616;2023-04-16T11:15:59;11.10;99.90
7720;DHT22;3902;49.474;8.616;2023-04-16T11:18:25;11.10;99.90
7720;DHT22;3902;49.474;8.616;2023-04-16T11:20:52;11.10;99.90
7720;DHT22;3902;49.474;8.616;2023-04-16T11:23:17;11.10;99.90
7720;DHT22;3902;49.474;8.616;2023-04-16T11:25:43;11.20;99.90
7720;DHT22;3902;49.474;8.616;2023-04-16T11:28:09;11.20;99.90
7720;DHT22;3902;49.474;8.616;2023-04-16T11:30:36;11.20;99.90
7720;DHT22;3902;49.474;8.616;2023-04-16T11:33:09;11.20;99.90
7720;DHT22;3902;49.474;8.616;2023-04-16T11:35:38;11.30;99.90
7720;DHT22;3902;49.474;8.616;2023-04-16T11:38:05;11.20;99.90
7720;DHT22;3902;49.474;8.616;2023-04-16T11:40:32;11.20;99.90
7720;DHT22;3902;49.474;8.616;2023-04-16T11:43:03;11.30;99.90
7720;DHT22;3902;49.474;8.616;2023-04-16T11:45:28;11.30;99.90
7720;DHT22;3902;49.474;8.616;2023-04-16T11:47:54;11.40;99.90
7720;DHT22;3902;49.474;8.616;2023-04-16T11:52:49;11.40;99.90
7720;DHT22;3902;49.474;8.616;2023-04-16T11:55:15;11.40;99.90
7720;DHT22;3902;49.474;8.616;2023-04-16T11:57:41;11.40;99.90
7720;DHT22;3902;49.474;8.616;2023-04-16T12:00:07;11.30;99.90
7720;DHT22;3902;49.474;8.616;2023-04-16T12:02:41;11.40;99.90
7720;DHT22;3902;49.474;8.616;2023-04-16T12:05:31;11.30;99.90
7720;DHT22;3902;49.474;8.616;2023-04-16T12:07:58;11.40;99.90
7720;DHT22;3902;49.474;8.616;2023-04-16T12:10:24;11.40;99.90
7720;DHT22;3902;49.474;8.616;2023-04-16T12:12:49;11.40;99.90
7720;DHT22;3902;49.474;8.616;2023-04-16T12:15:15;11.40;99.90
7720;DHT22;3902;49.474;8.616;2023-04-16T12:17:40;11.40;99.90
7720;DHT22;3902;49.474;8.616;2023-04-16T12:20:11;11.40;99.90
7720;DHT22;3902;49.474;8.616;2023-04-16T12:22:39;11.40;99.90
7720;DHT22;3902;49.474;8.616;2023-04-16T12:25:06;11.50;99.90
7720;DHT22;3902;49.474;8.616;2023-04-16T12:30:11;11.50;99.90
7720;DHT22;3902;49.474;8.616;2023-04-16T12:32:36;11.50;99.90
7720;DHT22;3902;49.474;8.616;2023-04-16T12:35:02;11.60;99.90
7720;DHT22;3902;49.474;8.616;2023-04-16T12:37:28;11.60;99.90
7720;DHT22;3902;49.474;8.616;2023-04-16T12:39:54;11.60;99.90
7720;DHT22;3902;49.474;8.616;2023-04-16T12:42:20;11.50;99.90
7720;DHT22;3902;49.474;8.616;2023-04-16T12:44:45;11.60;99.90
7720;DHT22;3902;49.474;8.616;2023-04-16T12:47:11;11.60;99.90
7720;DHT22;3902;49.474;8.616;2023-04-16T12:49:36;11.60;99.90
7720;DHT22;3902;49.474;8.616;2023-04-16T12:52:02;11.50;99.90
7720;DHT22;3902;49.474;8.616;2023-04-16T12:54:28;11.50;99.90
7720;DHT22;3902;49.474;8.616;2023-04-16T12:56:55;11.60;99.90
7720;DHT22;3902;49.474;8.616;2023-04-16T12:59:21;11.60;99.90
7720;DHT22;3902;49.474;8.616;2023-04-16T13:01:47;11.60;99.90
7720;DHT22;3902;49.474;8.616;2023-04-16T13:04:12;11.60;99.90
7720;DHT22;3902;49.474;8.616;2023-04-16T13:06:39;11.60;99.90
7720;DHT22;3902;49.474;8.616;2023-04-16T13:09:04;11.60;99.90
7720;DHT22;3902;49.474;8.616;2023-04-16T13:11:31;11.60;99.90
7720;DHT22;3902;49.474;8.616;2023-04-16T13:13:56;11.70;99.90
7720;DHT22;3902;49.474;8.616;2023-04-16T13:16:22;11.60;99.90
7720;DHT22;3902;49.474;8.616;2023-04-16T13:18:48;11.70;99.90
7720;DHT22;3902;49.474;8.616;2023-04-16T13:21:13;11.70;99.90
7720;DHT22;3902;49.474;8.616;2023-04-16T13:23:39;11.70;99.90
7720;DHT22;3902;49.474;8.616;2023-04-16T13:26:05;11.70;99.90
7720;DHT22;3902;49.474;8.616;2023-04-16T13:28:30;11.70;99.90
7720;DHT22;3902;49.474;8.616;2023-04-16T13:30:56;11.70;99.90
7720;DHT22;3902;49.474;8.616;2023-04-16T13:33:22;11.70;99.90
7720;DHT22;3902;49.474;8.616;2023-04-16T13:35:48;11.80;99.90
7720;DHT22;3902;49.474;8.616;2023-04-16T13:38:14;11.70;99.90
7720;DHT22;3902;49.474;8.616;2023-04-16T13:40:39;11.70;99.90
7720;DHT22;3902;49.474;8.616;2023-04-16T13:43:05;11.70;99.90
7720;DHT22;3902;49.474;8.616;2023-04-16T13:45:30;11.80;99.90
7720;DHT22;3902;49.474;8.616;2023-04-16T13:47:56;11.80;99.90
7720;DHT22;3902;49.474;8.616;2023-04-16T13:50:22;11.80;99.90
7720;DHT22;3902;49.474;8.616;2023-04-16T13:52:47;11.70;99.90
7720;DHT22;3902;49.474;8.616;2023-04-16T13:55:13;11.70;99.90
7720;DHT22;3902;49.474;8.616;2023-04-16T13:57:41;11.70;99.90
7720;DHT22;3902;49.474;8.616;2023-04-16T14:00:07;11.70;99.90
7720;DHT22;3902;49.474;8.616;2023-04-16T14:02:34;11.70;99.90
7720;DHT22;3902;49.474;8.616;2023-04-16T14:05:00;11.70;99.90
7720;DHT22;3902;49.474;8.616;2023-04-16T14:07:25;11.70;99.90
7720;DHT22;3902;49.474;8.616;2023-04-16T14:09:52;11.70;99.90
7720;DHT22;3902;49.474;8.616;2023-04-16T14:12:18;11.70;99.90
7720;DHT22;3902;49.474;8.616;2023-04-16T14:14:44;11.70;99.90
7720;DHT22;3902;49.474;8.616;2023-04-16T14:17:09;11.70;99.90
7720;DHT22;3902;49.474;8.616;2023-04-16T14:19:35;11.70;99.90
7720;DHT22;3902;49.474;8.616;2023-04-16T14:22:01;11.70;99.90
7720;DHT22;3902;49.474;8.616;2023-04-16T14:24:26;11.70;99.90
7720;DHT22;3902;49.474;8.616;2023-04-16T14:26:52;11.70;99.90
7720;DHT22;3902;49.474;8.616;2023-04-16T14:29:17;11.70;99.90
7720;DHT22;3902;49.474;8.616;2023-04-16T14:31:43;11.70;99.90
7720;DHT22;3902;49.474;8.616;2023-04-16T14:34:08;11.70;99.90
7720;DHT22;3902;49.474;8.616;2023-04-16T14:36:35;11.70;99.90
7720;DHT22;3902;49.474;8.616;2023-04-16T14:39:00;11.80;99.90
7720;DHT22;3902;49.474;8.616;2023-04-16T14:41:26;11.70;99.90
7720;DHT22;3902;49.474;8.616;2023-04-16T14:43:52;11.80;99.90
7720;DHT22;3902;49.474;8.616;2023-04-16T14:46:17;11.80;99.90
7720;DHT22;3902;49.474;8.616;2023-04-16T14:48:43;11.80;99.90
7720;DHT22;3902;49.474;8.616;2023-04-16T14:51:10;11.80;99.90
7720;DHT22;3902;49.474;8.616;2023-04-16T14:53:36;11.80;99.90
7720;DHT22;3902;49.474;8.616;2023-04-16T14:56:02;11.80;99.90
7720;DHT22;3902;49.474;8.616;2023-04-16T14:58:28;11.80;99.90
7720;DHT22;3902;49.474;8.616;2023-04-16T15:00:53;11.80;99.90
7720;DHT22;3902;49.474;8.616;2023-04-16T15:03:19;11.90;99.90
7720;DHT22;3902;49.474;8.616;2023-04-16T15:05:45;11.90;99.90
7720;DHT22;3902;49.474;8.616;2023-04-16T15:08:15;11.90;99.90
7720;DHT22;3902;49.474;8.616;2023-04-16T15:10:41;11.90;99.90
7720;DHT22;3902;49.474;8.616;2023-04-16T15:13:07;11.90;99.90
7720;DHT22;3902;49.474;8.616;2023-04-16T15:15:33;11.90;99.90
7720;DHT22;3902;49.474;8.616;2023-04-16T15:17:58;11.90;99.90
7720;DHT22;3902;49.474;8.616;2023-04-16T15:20:24;11.90;99.90
7720;DHT22;3902;49.474;8.616;2023-04-16T15:22:50;11.90;99.90
7720;DHT22;3902;49.474;8.616;2023-04-16T15:25:16;11.90;99.90
7720;DHT22;3902;49.474;8.616;2023-04-16T15:27:41;11.90;99.90
7720;DHT22;3902;49.474;8.616;2023-04-16T15:30:07;11.90;99.90
7720;DHT22;3902;49.474;8.616;2023-04-16T15:32:33;11.90;99.90
7720;DHT22;3902;49.474;8.616;2023-04-16T15:34:58;12.00;99.90
7720;DHT22;3902;49.474;8.616;2023-04-16T15:37:24;12.00;99.90
7720;DHT22;3902;49.474;8.616;2023-04-16T15:39:50;12.00;99.90
7720;DHT22;3902;49.474;8.616;2023-04-16T15:42:15;12.00;99.90
7720;DHT22;3902;49.474;8.616;2023-04-16T15:44:41;12.10;99.90
7720;DHT22;3902;49.474;8.616;2023-04-16T15:47:06;12.00;99.90
7720;DHT22;3902;49.474;8.616;2023-04-16T15:49:33;12.00;99.90
7720;DHT22;3902;49.474;8.616;2023-04-16T15:51:59;12.10;99.90
7720;DHT22;3902;49.474;8.616;2023-04-16T15:54:25;12.10;99.90
7720;DHT22;3902;49.474;8.616;2023-04-16T15:56:51;12.10;99.90
7720;DHT22;3902;49.474;8.616;2023-04-16T15:59:16;12.10;99.90
7720;DHT22;3902;49.474;8.616;2023-04-16T16:01:42;12.10;99.90
7720;DHT22;3902;49.474;8.616;2023-04-16T16:04:08;12.10;99.90